Time;durP1;ratioP1;P1;durP2;ratioP2;P2;SDS_P1;SDS_P2;PMS_P1;PMS_P2;Temp;Humidity;BMP_temperature;BMP_pressure;BME280_temperature;BME280_humidity;BME280_pressure;Samples;Min_cycle;Max_cycle;Signal;HPM_P1;HPM_P2
2023/12/15 00:03:28;;;;;;;;;;;6.90;99.90;;;;;;8426048;28;20281;-70
2023/12/15 00:07:29;;;;;;;;;;;6.90;99.90;;;;;;8435029;28;20361;-70
2023/12/15 00:11:31;;;;;;;;;;;6.90;99.90;;;;;;8432389;28;20303;-70
2023/12/15 00:15:33;;;;;;;;;;;6.90;99.90;;;;;;8431284;28;20359;-70
2023/12/15 00:19:34;;;;;;;;;;;6.90;99.90;;;;;;8426874;28;19977;-70
2023/12/15 00:23:36;;;;;;;;;;;6.90;99.90;;;;;;8434286;28;19928;-70
2023/12/15 00:27:38;;;;;;;;;;;7.00;99.90;;;;;;8424706;28;19924;-70
2023/12/15 00:31:40;;;;;;;;;;;7.00;99.90;;;;;;8434774;28;19990;-70
2023/12/15 00:35:41;;;;;;;;;;;7.00;99.90;;;;;;8436808;28;19978;-70
2023/12/15 00:39:43;;;;;;;;;;;7.00;99.90;;;;;;8430506;28;19983;-70
2023/12/15 00:43:44;;;;;;;;;;;7.00;99.90;;;;;;8427883;28;19924;-70
2023/12/15 00:47:46;;;;;;;;;;;7.00;99.90;;;;;;8430597;28;19924;-70
2023/12/15 00:51:48;;;;;;;;;;;7.00;99.90;;;;;;8432322;28;19924;-70
2023/12/15 00:55:49;;;;;;;;;;;7.00;99.90;;;;;;8422469;28;19924;-70
2023/12/15 00:59:51;;;;;;;;;;;7.00;99.90;;;;;;8425790;28;19928;-70
2023/12/15 01:03:53;;;;;;;;;;;7.00;99.90;;;;;;8440236;28;19927;-70
2023/12/15 01:07:54;;;;;;;;;;;7.00;99.90;;;;;;8430275;28;19925;-70
2023/12/15 01:11:56;;;;;;;;;;;7.00;99.90;;;;;;8427338;28;20366;-70
2023/12/15 01:15:58;;;;;;;;;;;7.10;99.90;;;;;;8425637;28;19932;-70
2023/12/15 01:19:59;;;;;;;;;;;7.10;99.90;;;;;;8423980;28;19924;-70
2023/12/15 01:24:01;;;;;;;;;;;7.10;99.90;;;;;;8425571;28;20366;-70
2023/12/15 01:28:03;;;;;;;;;;;7.10;99.90;;;;;;8423314;28;19924;-70
2023/12/15 01:32:05;;;;;;;;;;;7.10;99.90;;;;;;8424755;28;19932;-69
2023/12/15 01:36:07;;;;;;;;;;;7.10;99.90;;;;;;8427688;28;19928;-70
2023/12/15 01:40:08;;;;;;;;;;;7.10;99.90;;;;;;8418632;28;19932;-70
2023/12/15 01:44:10;;;;;;;;;;;7.20;99.90;;;;;;8432988;28;19924;-70
2023/12/15 01:48:12;;;;;;;;;;;7.20;99.90;;;;;;8425951;28;20512;-70
2023/12/15 01:52:14;;;;;;;;;;;7.20;99.90;;;;;;8423548;28;19924;-70
2023/12/15 01:56:15;;;;;;;;;;;7.20;99.90;;;;;;8420132;28;19932;-69
2023/12/15 02:00:17;;;;;;;;;;;7.20;99.90;;;;;;8431881;28;19927;-70
2023/12/15 02:04:19;;;;;;;;;;;7.20;99.90;;;;;;8421816;28;19924;-70
2023/12/15 02:08:21;;;;;;;;;;;7.30;99.90;;;;;;8433067;28;19924;-70
2023/12/15 02:12:23;;;;;;;;;;;7.30;99.90;;;;;;8426683;28;19924;-69
2023/12/15 02:16:24;;;;;;;;;;;7.30;99.90;;;;;;8459289;27;19928;-70
2023/12/15 02:20:26;;;;;;;;;;;7.30;99.90;;;;;;8428522;28;19985;-70
2023/12/15 02:24:28;;;;;;;;;;;7.40;99.90;;;;;;8423079;28;20258;-70
2023/12/15 02:28:29;;;;;;;;;;;7.40;99.90;;;;;;8420281;28;19928;-70
2023/12/15 02:32:31;;;;;;;;;;;7.40;99.90;;;;;;8423559;28;19995;-70
2023/12/15 02:36:33;;;;;;;;;;;7.40;99.90;;;;;;8422155;28;19927;-70
2023/12/15 02:40:35;;;;;;;;;;;7.40;99.90;;;;;;8438576;28;19944;-70
2023/12/15 02:44:36;;;;;;;;;;;7.40;99.90;;;;;;8420532;28;19928;-70
2023/12/15 02:48:38;;;;;;;;;;;7.50;99.90;;;;;;8431280;28;19986;-70
2023/12/15 02:52:40;;;;;;;;;;;7.50;99.90;;;;;;8432355;28;20427;-70
2023/12/15 02:56:42;;;;;;;;;;;7.50;99.90;;;;;;8420521;28;20461;-70
2023/12/15 03:00:43;;;;;;;;;;;7.50;99.90;;;;;;8434279;28;19925;-70
2023/12/15 03:04:45;;;;;;;;;;;7.50;99.90;;;;;;8429008;28;20324;-70
2023/12/15 03:08:47;;;;;;;;;;;7.50;99.90;;;;;;8428184;28;19978;-70
2023/12/15 03:12:48;;;;;;;;;;;7.50;99.90;;;;;;8433612;28;19932;-70
2023/12/15 03:16:50;;;;;;;;;;;7.60;99.90;;;;;;8415305;28;19924;-70
2023/12/15 03:20:52;;;;;;;;;;;7.60;99.90;;;;;;8460037;27;19953;-70
2023/12/15 03:24:54;;;;;;;;;;;7.60;99.90;;;;;;8435001;28;19931;-70
2023/12/15 03:28:55;;;;;;;;;;;7.60;99.90;;;;;;8425593;28;19931;-70
2023/12/15 03:32:57;;;;;;;;;;;7.60;99.90;;;;;;8428714;28;20338;-70
2023/12/15 03:36:59;;;;;;;;;;;7.60;99.90;;;;;;8434823;28;19934;-70
2023/12/15 03:41:00;;;;;;;;;;;7.60;99.90;;;;;;8423021;28;19924;-70
2023/12/15 03:45:02;;;;;;;;;;;7.60;99.90;;;;;;8434519;28;19935;-70
2023/12/15 03:49:04;;;;;;;;;;;7.60;99.90;;;;;;8424740;28;19931;-70
2023/12/15 03:53:06;;;;;;;;;;;7.60;99.90;;;;;;8426992;28;19928;-70
2023/12/15 03:57:07;;;;;;;;;;;7.60;99.90;;;;;;8427105;28;19930;-70
2023/12/15 04:01:09;;;;;;;;;;;7.60;99.90;;;;;;8427387;28;19924;-70
2023/12/15 04:05:11;;;;;;;;;;;7.60;99.90;;;;;;8419875;28;19931;-70
2023/12/15 04:09:13;;;;;;;;;;;7.60;99.90;;;;;;8422937;28;19924;-70
2023/12/15 04:13:15;;;;;;;;;;;7.60;99.90;;;;;;8431851;28;20367;-70
2023/12/15 04:17:16;;;;;;;;;;;7.60;99.90;;;;;;8424043;28;19924;-70
2023/12/15 04:21:18;;;;;;;;;;;7.60;99.90;;;;;;8421378;28;20387;-70
2023/12/15 04:25:20;;;;;;;;;;;7.50;99.90;;;;;;8423558;28;19970;-70
2023/12/15 04:29:22;;;;;;;;;;;7.50;99.90;;;;;;8432344;28;20250;-70
2023/12/15 04:33:24;;;;;;;;;;;7.40;99.90;;;;;;8425391;28;19924;-70
2023/12/15 04:37:25;;;;;;;;;;;7.40;99.90;;;;;;8433519;28;19924;-70
2023/12/15 04:41:27;;;;;;;;;;;7.40;99.90;;;;;;8424978;28;20337;-70
2023/12/15 04:45:29;;;;;;;;;;;7.40;99.90;;;;;;8433845;28;19928;-70
2023/12/15 04:49:30;;;;;;;;;;;7.40;99.90;;;;;;8430088;28;19924;-70
2023/12/15 04:53:32;;;;;;;;;;;7.40;99.90;;;;;;8421834;28;19924;-69
2023/12/15 04:57:34;;;;;;;;;;;7.40;99.90;;;;;;8458984;27;19980;-69
2023/12/15 05:01:35;;;;;;;;;;;7.40;99.90;;;;;;8422581;28;19923;-70
2023/12/15 05:05:37;;;;;;;;;;;7.40;99.90;;;;;;8427793;28;20368;-70
2023/12/15 05:09:39;;;;;;;;;;;7.40;99.90;;;;;;8434084;28;19978;-70
2023/12/15 05:13:41;;;;;;;;;;;7.40;99.90;;;;;;8421335;28;19978;-70
2023/12/15 05:17:42;;;;;;;;;;;7.50;99.90;;;;;;8430801;28;19928;-70
2023/12/15 05:21:44;;;;;;;;;;;7.40;99.90;;;;;;8422555;28;19928;-70
2023/12/15 05:25:46;;;;;;;;;;;7.50;99.90;;;;;;8422548;28;19928;-69
2023/12/15 05:29:48;;;;;;;;;;;7.50;99.90;;;;;;8421933;28;19970;-70
2023/12/15 05:33:49;;;;;;;;;;;7.50;99.90;;;;;;8418410;28;20280;-70
2023/12/15 05:37:53;;;;;;;;;;;7.50;99.90;;;;;;8435104;28;20390;-70
2023/12/15 05:41:54;;;;;;;;;;;7.50;99.90;;;;;;8430870;28;19924;-70
2023/12/15 05:45:56;;;;;;;;;;;7.50;99.90;;;;;;8430210;28;19924;-70
2023/12/15 06:04:52;;;;;;;;;;;7.50;99.90;;;;;;8378876;28;20402;-69
2023/12/15 06:09:27;;;;;;;;;;;7.40;99.90;;;;;;8381624;28;19931;-70
2023/12/15 06:13:29;;;;;;;;;;;7.40;99.90;;;;;;8377721;28;19924;-70
2023/12/15 06:17:31;;;;;;;;;;;7.50;99.90;;;;;;8389880;28;19950;-70
2023/12/15 06:21:33;;;;;;;;;;;7.50;99.90;;;;;;8389426;28;19928;-70
2023/12/15 06:40:40;;;;;;;;;;;7.60;99.90;;;;;;8385010;28;20003;-70
2023/12/15 06:44:43;;;;;;;;;;;7.60;99.90;;;;;;8388082;28;20016;-70
2023/12/15 06:48:46;;;;;;;;;;;7.60;99.90;;;;;;8396473;28;19954;-70
2023/12/15 06:52:49;;;;;;;;;;;7.60;99.90;;;;;;8402872;28;20030;-70
2023/12/15 06:56:51;;;;;;;;;;;7.60;99.90;;;;;;8390168;28;20284;-70
2023/12/15 07:00:53;;;;;;;;;;;7.60;99.90;;;;;;8407274;28;19998;-70
2023/12/15 07:04:55;;;;;;;;;;;7.60;99.90;;;;;;8448562;28;19928;-70
2023/12/15 07:08:58;;;;;;;;;;;7.60;99.90;;;;;;8439126;28;19924;-70
2023/12/15 07:12:59;;;;;;;;;;;7.60;99.90;;;;;;8417232;28;19924;-70
2023/12/15 07:17:01;;;;;;;;;;;7.60;99.90;;;;;;8420951;28;19970;-70
2023/12/15 07:21:03;;;;;;;;;;;7.60;99.90;;;;;;8441361;28;20014;-70
2023/12/15 07:25:05;;;;;;;;;;;7.60;99.90;;;;;;8436164;28;19927;-69
2023/12/15 07:29:06;;;;;;;;;;;7.50;99.90;;;;;;8411895;28;19928;-69
2023/12/15 07:33:08;;;;;;;;;;;7.60;99.90;;;;;;8420774;28;20015;-70
2023/12/15 07:37:10;;;;;;;;;;;7.60;99.90;;;;;;8426861;28;19968;-69
2023/12/15 07:41:15;;;;;;;;;;;7.60;99.90;;;;;;8425953;28;19930;-70
2023/12/15 07:45:16;;;;;;;;;;;7.60;99.90;;;;;;8425568;28;19990;-70
2023/12/15 07:49:20;;;;;;;;;;;7.60;99.90;;;;;;8424049;28;20402;-70
2023/12/15 07:53:22;;;;;;;;;;;7.60;99.90;;;;;;8415576;28;19924;-70
2023/12/15 07:57:23;;;;;;;;;;;7.60;99.90;;;;;;8420798;28;19931;-70
2023/12/15 08:01:25;;;;;;;;;;;7.70;99.90;;;;;;8435580;28;20442;-70
2023/12/15 08:05:27;;;;;;;;;;;7.70;99.90;;;;;;8425094;28;19947;-70
2023/12/15 08:09:29;;;;;;;;;;;7.70;99.90;;;;;;8420304;28;19924;-70
2023/12/15 08:13:30;;;;;;;;;;;7.70;99.90;;;;;;8405608;28;19977;-69
2023/12/15 08:17:33;;;;;;;;;;;7.80;99.90;;;;;;8409147;28;20174;-69
2023/12/15 08:21:35;;;;;;;;;;;7.80;99.90;;;;;;8414247;28;19951;-71
2023/12/15 08:25:37;;;;;;;;;;;7.80;99.90;;;;;;8415795;28;19971;-70
2023/12/15 08:29:38;;;;;;;;;;;7.80;99.90;;;;;;8410147;28;19924;-70
2023/12/15 08:33:40;;;;;;;;;;;7.80;99.90;;;;;;8417994;28;19931;-70
2023/12/15 08:37:42;;;;;;;;;;;7.80;99.90;;;;;;8430728;28;19935;-70
2023/12/15 08:41:44;;;;;;;;;;;7.90;99.90;;;;;;8438086;28;19928;-70
2023/12/15 08:45:45;;;;;;;;;;;7.90;99.90;;;;;;8444902;28;20275;-70
2023/12/15 08:49:48;;;;;;;;;;;8.00;99.90;;;;;;8437238;28;20486;-70
2023/12/15 08:53:49;;;;;;;;;;;8.00;99.90;;;;;;8468158;27;19924;-70
2023/12/15 08:57:51;;;;;;;;;;;8.00;99.90;;;;;;8425796;28;19977;-70
2023/12/15 09:01:52;;;;;;;;;;;8.10;99.90;;;;;;8415975;28;19928;-70
2023/12/15 09:05:54;;;;;;;;;;;8.10;99.90;;;;;;8415838;28;20210;-70
2023/12/15 09:10:16;;;;;;;;;;;8.20;99.90;;;;;;8419497;28;19930;-70
2023/12/15 09:14:21;;;;;;;;;;;8.20;99.90;;;;;;8417352;28;19924;-70
2023/12/15 09:18:23;;;;;;;;;;;8.30;99.90;;;;;;8418762;28;20287;-70
2023/12/15 09:22:25;;;;;;;;;;;8.30;99.90;;;;;;8420686;28;19931;-70
2023/12/15 09:26:26;;;;;;;;;;;8.40;99.90;;;;;;8421099;28;19928;-70
2023/12/15 09:30:28;;;;;;;;;;;8.40;99.90;;;;;;8424196;28;19924;-70
2023/12/15 09:34:30;;;;;;;;;;;8.50;99.90;;;;;;8412769;28;20026;-70
2023/12/15 09:38:32;;;;;;;;;;;8.50;99.90;;;;;;8436854;28;19935;-70
2023/12/15 09:42:33;;;;;;;;;;;8.60;99.90;;;;;;8422441;28;19973;-70
2023/12/15 09:46:35;;;;;;;;;;;8.70;99.90;;;;;;8417901;28;19925;-70
2023/12/15 09:50:39;;;;;;;;;;;8.70;99.90;;;;;;8418400;28;19924;-70
2023/12/15 09:54:41;;;;;;;;;;;8.80;99.90;;;;;;8417091;28;20368;-70
2023/12/15 09:58:43;;;;;;;;;;;8.80;99.90;;;;;;8424518;28;19924;-70
2023/12/15 10:02:44;;;;;;;;;;;8.80;99.90;;;;;;8436410;28;19924;-70
2023/12/15 10:06:47;;;;;;;;;;;8.80;99.90;;;;;;8435129;28;20273;-70
2023/12/15 10:10:48;;;;;;;;;;;8.90;99.90;;;;;;8414419;28;20308;-70
2023/12/15 10:14:50;;;;;;;;;;;8.90;99.90;;;;;;8423184;28;19923;-70
2023/12/15 10:18:52;;;;;;;;;;;9.00;99.90;;;;;;8418287;28;19927;-70
2023/12/15 10:23:04;;;;;;;;;;;9.10;99.90;;;;;;8415733;28;20342;-70
2023/12/15 10:27:08;;;;;;;;;;;9.10;99.90;;;;;;8413841;28;19935;-70
2023/12/15 10:31:09;;;;;;;;;;;9.10;99.90;;;;;;8415904;28;19935;-70
2023/12/15 10:35:12;;;;;;;;;;;9.10;99.90;;;;;;8418432;28;19924;-71
2023/12/15 10:39:14;;;;;;;;;;;9.20;99.90;;;;;;8412816;28;19946;-71
2023/12/15 10:43:16;;;;;;;;;;;9.20;99.90;;;;;;8405894;28;19978;-70
2023/12/15 10:47:18;;;;;;;;;;;9.20;99.90;;;;;;8447570;27;19977;-70
2023/12/15 10:51:20;;;;;;;;;;;9.30;99.90;;;;;;8413624;28;19924;-70
2023/12/15 10:55:25;;;;;;;;;;;9.30;99.90;;;;;;8409101;28;20359;-70
2023/12/15 10:59:28;;;;;;;;;;;9.30;99.90;;;;;;8418474;28;19935;-71
2023/12/15 11:03:29;;;;;;;;;;;9.30;99.90;;;;;;8422263;28;19932;-70
2023/12/15 11:07:31;;;;;;;;;;;9.40;99.90;;;;;;8415839;28;19932;-70
2023/12/15 11:11:33;;;;;;;;;;;9.40;99.90;;;;;;8454870;27;19929;-70
2023/12/15 11:15:35;;;;;;;;;;;9.40;99.90;;;;;;8428226;28;19969;-70
2023/12/15 11:19:39;;;;;;;;;;;9.40;99.90;;;;;;8433327;28;20379;-70
2023/12/15 11:23:48;;;;;;;;;;;9.50;99.90;;;;;;8443371;28;19931;-70
2023/12/15 11:28:09;;;;;;;;;;;9.50;99.90;;;;;;8430063;28;19964;-71
2023/12/15 11:32:27;;;;;;;;;;;9.60;99.90;;;;;;8431633;28;19924;-71
2023/12/15 11:36:30;;;;;;;;;;;9.60;99.90;;;;;;8419343;28;19983;-71
2023/12/15 11:40:33;;;;;;;;;;;9.70;99.90;;;;;;8423269;28;20394;-71
2023/12/15 11:44:35;;;;;;;;;;;9.70;99.90;;;;;;8415649;28;19932;-71
2023/12/15 11:48:37;;;;;;;;;;;9.80;99.90;;;;;;8422713;28;19981;-70
2023/12/15 11:52:40;;;;;;;;;;;9.80;99.90;;;;;;8434276;28;20397;-70
2023/12/15 11:56:41;;;;;;;;;;;9.80;99.90;;;;;;8427384;28;20262;-70
2023/12/15 12:00:43;;;;;;;;;;;9.80;99.90;;;;;;8424685;28;19928;-70
2023/12/15 12:04:48;;;;;;;;;;;9.90;99.90;;;;;;8420180;28;19928;-70
2023/12/15 12:08:49;;;;;;;;;;;9.90;99.90;;;;;;8427280;28;19924;-70
2023/12/15 12:12:51;;;;;;;;;;;10.00;99.90;;;;;;8426016;28;19964;-70
2023/12/15 12:16:53;;;;;;;;;;;9.90;99.90;;;;;;8440407;28;19924;-70
2023/12/15 12:21:03;;;;;;;;;;;9.90;99.90;;;;;;8427282;28;19932;-70
2023/12/15 12:25:06;;;;;;;;;;;9.90;99.90;;;;;;8423037;28;19974;-70
2023/12/15 12:29:08;;;;;;;;;;;10.00;99.90;;;;;;8426448;28;20354;-70
2023/12/15 12:33:10;;;;;;;;;;;10.00;99.90;;;;;;8428266;28;20286;-70
2023/12/15 12:37:14;;;;;;;;;;;10.00;99.90;;;;;;8428155;28;19928;-70
2023/12/15 12:41:16;;;;;;;;;;;10.00;99.90;;;;;;8433865;28;19970;-70
2023/12/15 12:45:18;;;;;;;;;;;10.10;99.90;;;;;;8426275;28;19931;-70
2023/12/15 12:49:20;;;;;;;;;;;10.10;99.90;;;;;;8434305;28;19932;-70
2023/12/15 12:53:21;;;;;;;;;;;10.10;99.90;;;;;;8419648;28;19924;-70
2023/12/15 12:57:28;;;;;;;;;;;10.20;99.90;;;;;;8437538;28;19938;-70
2023/12/15 13:01:30;;;;;;;;;;;10.20;99.90;;;;;;8442152;28;20435;-70
2023/12/15 13:05:31;;;;;;;;;;;10.20;99.90;;;;;;8423501;28;19955;-70
2023/12/15 13:09:34;;;;;;;;;;;10.20;99.90;;;;;;8427861;28;19950;-70
2023/12/15 13:13:36;;;;;;;;;;;10.20;99.90;;;;;;8432092;28;19939;-70
2023/12/15 13:17:39;;;;;;;;;;;10.20;99.90;;;;;;8422810;28;19969;-70
2023/12/15 13:21:41;;;;;;;;;;;10.20;99.90;;;;;;8438422;28;19924;-70
2023/12/15 13:25:43;;;;;;;;;;;10.20;99.90;;;;;;8432208;28;19931;-70
2023/12/15 13:29:46;;;;;;;;;;;10.20;99.90;;;;;;8427599;28;19939;-70
2023/12/15 13:33:48;;;;;;;;;;;10.20;99.90;;;;;;8412016;28;19931;-70
2023/12/15 13:37:49;;;;;;;;;;;10.20;99.90;;;;;;8421628;28;19974;-70
2023/12/15 13:41:51;;;;;;;;;;;10.10;99.90;;;;;;8416636;28;20257;-70
2023/12/15 13:45:53;;;;;;;;;;;10.10;99.90;;;;;;8420674;28;20025;-70
2023/12/15 13:50:02;;;;;;;;;;;10.10;99.90;;;;;;8412774;28;20400;-70
2023/12/15 13:54:04;;;;;;;;;;;10.10;99.90;;;;;;8419252;28;19924;-71
2023/12/15 13:58:06;;;;;;;;;;;10.10;99.90;;;;;;8416580;28;19936;-71
2023/12/15 14:02:07;;;;;;;;;;;10.10;99.90;;;;;;8409303;28;20394;-71
2023/12/15 14:06:11;;;;;;;;;;;10.10;99.90;;;;;;8445230;27;20391;-71
2023/12/15 14:10:13;;;;;;;;;;;10.10;99.90;;;;;;8430141;28;19952;-70
2023/12/15 14:14:16;;;;;;;;;;;10.00;99.90;;;;;;8435710;28;19928;-71
2023/12/15 14:18:18;;;;;;;;;;;10.00;99.90;;;;;;8431347;28;19925;-71
2023/12/15 14:22:20;;;;;;;;;;;10.00;99.90;;;;;;8433543;28;19924;-71
2023/12/15 14:26:21;;;;;;;;;;;10.00;99.90;;;;;;8419287;28;19925;-71
2023/12/15 14:30:23;;;;;;;;;;;9.90;99.90;;;;;;8435137;28;19928;-71
2023/12/15 14:34:25;;;;;;;;;;;9.90;99.90;;;;;;8423006;28;19925;-70
2023/12/15 14:38:27;;;;;;;;;;;9.90;99.90;;;;;;8430107;28;19927;-70
2023/12/15 14:42:29;;;;;;;;;;;9.90;99.90;;;;;;8429388;28;19934;-70
2023/12/15 14:46:31;;;;;;;;;;;9.80;99.90;;;;;;8434328;28;19928;-70
2023/12/15 14:50:37;;;;;;;;;;;9.80;99.90;;;;;;8427379;28;19924;-70
2023/12/15 14:54:39;;;;;;;;;;;9.80;99.90;;;;;;8434405;28;19972;-70
2023/12/15 14:58:40;;;;;;;;;;;9.80;99.90;;;;;;8436642;28;19924;-70
2023/12/15 15:02:42;;;;;;;;;;;9.70;99.90;;;;;;8424492;28;19929;-71
2023/12/15 15:06:44;;;;;;;;;;;9.70;99.90;;;;;;8428475;28;20241;-71
2023/12/15 15:10:47;;;;;;;;;;;9.60;99.90;;;;;;8438376;28;19935;-71
2023/12/15 15:14:49;;;;;;;;;;;9.60;99.90;;;;;;8414512;28;20412;-71
2023/12/15 15:18:51;;;;;;;;;;;9.50;99.90;;;;;;8422841;28;19932;-70
2023/12/15 15:22:53;;;;;;;;;;;9.50;99.90;;;;;;8424127;28;20022;-71
2023/12/15 15:26:55;;;;;;;;;;;9.50;99.90;;;;;;8424689;28;20044;-70
2023/12/15 15:30:56;;;;;;;;;;;9.50;99.90;;;;;;8426912;28;19933;-70
2023/12/15 15:35:01;;;;;;;;;;;9.50;99.90;;;;;;8424685;28;19935;-71
2023/12/15 15:39:06;;;;;;;;;;;9.40;99.90;;;;;;8427418;28;19936;-71
2023/12/15 15:43:08;;;;;;;;;;;9.40;99.90;;;;;;8428987;28;19993;-71
2023/12/15 15:47:12;;;;;;;;;;;9.40;99.90;;;;;;8426584;28;19980;-71
2023/12/15 15:51:19;;;;;;;;;;;9.40;99.90;;;;;;8426297;28;19924;-70
2023/12/15 15:55:21;;;;;;;;;;;9.40;99.90;;;;;;8437357;28;19931;-71
2023/12/15 15:59:23;;;;;;;;;;;9.40;99.90;;;;;;8434746;28;19977;-71
2023/12/15 16:03:24;;;;;;;;;;;9.30;99.90;;;;;;8426837;28;19924;-71
2023/12/15 16:07:26;;;;;;;;;;;9.30;99.90;;;;;;8432780;28;20454;-71
2023/12/15 16:11:28;;;;;;;;;;;9.30;99.90;;;;;;8438123;28;19931;-71
2023/12/15 16:15:30;;;;;;;;;;;9.30;99.90;;;;;;8436319;28;19961;-71
2023/12/15 16:19:31;;;;;;;;;;;9.30;99.90;;;;;;8451325;27;20324;-71
2023/12/15 16:23:33;;;;;;;;;;;9.20;99.90;;;;;;8425020;28;19935;-71
2023/12/15 16:27:35;;;;;;;;;;;9.20;99.90;;;;;;8426244;28;19924;-71
2023/12/15 16:31:38;;;;;;;;;;;9.20;99.90;;;;;;8433556;28;19932;-71
2023/12/15 16:35:40;;;;;;;;;;;9.10;99.90;;;;;;8424723;28;19938;-71
2023/12/15 16:39:45;;;;;;;;;;;9.10;99.90;;;;;;8423317;28;20679;-71
2023/12/15 16:43:47;;;;;;;;;;;9.10;99.90;;;;;;8407196;28;20294;-71
2023/12/15 16:47:49;;;;;;;;;;;9.00;99.90;;;;;;8411971;28;20351;-71
2023/12/15 16:51:50;;;;;;;;;;;9.00;99.90;;;;;;8408647;28;19978;-71
2023/12/15 16:55:52;;;;;;;;;;;9.00;99.90;;;;;;8413076;28;19924;-70
2023/12/15 17:10:15;;;;;;;;;;;9.00;99.90;;;;;;8379283;28;19919;-70
2023/12/15 17:14:17;;;;;;;;;;;8.90;99.90;;;;;;8413836;28;19924;-71
2023/12/15 17:18:18;;;;;;;;;;;8.80;99.90;;;;;;8408743;28;20383;-70
2023/12/15 17:22:20;;;;;;;;;;;8.80;99.90;;;;;;8412646;28;19971;-71
2023/12/15 17:26:22;;;;;;;;;;;8.80;99.90;;;;;;8415601;28;19976;-71
2023/12/15 17:30:24;;;;;;;;;;;8.80;99.90;;;;;;8412147;28;19926;-71
2023/12/15 17:34:25;;;;;;;;;;;8.80;99.90;;;;;;8418820;28;19924;-71
2023/12/15 17:38:27;;;;;;;;;;;8.70;99.90;;;;;;8412523;28;20395;-71
2023/12/15 17:42:29;;;;;;;;;;;8.70;99.90;;;;;;8413022;28;19933;-71
2023/12/15 17:46:33;;;;;;;;;;;8.70;99.90;;;;;;8418878;28;19977;-71
2023/12/15 17:50:36;;;;;;;;;;;8.70;99.90;;;;;;8437651;28;20345;-71
2023/12/15 17:54:38;;;;;;;;;;;8.70;99.90;;;;;;8427503;28;19936;-71
2023/12/15 17:58:41;;;;;;;;;;;8.70;99.90;;;;;;8444214;28;19970;-71
2023/12/15 18:02:43;;;;;;;;;;;8.70;99.90;;;;;;8428049;28;19928;-71
2023/12/15 18:06:44;;;;;;;;;;;8.70;99.90;;;;;;8442565;28;19928;-71
2023/12/15 18:10:47;;;;;;;;;;;8.70;99.90;;;;;;8425763;28;19930;-71
2023/12/15 18:14:48;;;;;;;;;;;8.70;99.90;;;;;;8419016;28;19935;-71
2023/12/15 18:18:50;;;;;;;;;;;8.60;99.90;;;;;;8429215;28;20352;-71
2023/12/15 18:22:52;;;;;;;;;;;8.60;99.90;;;;;;8437487;28;19935;-71
2023/12/15 18:26:53;;;;;;;;;;;8.60;99.90;;;;;;8437651;28;19931;-71
2023/12/15 18:30:55;;;;;;;;;;;8.60;99.90;;;;;;8444895;28;20390;-71
2023/12/15 18:34:57;;;;;;;;;;;8.60;99.90;;;;;;8432347;28;19924;-71
2023/12/15 18:38:59;;;;;;;;;;;8.60;99.90;;;;;;8438521;28;19978;-71
2023/12/15 18:43:00;;;;;;;;;;;8.60;99.90;;;;;;8434619;28;19924;-71
2023/12/15 18:47:02;;;;;;;;;;;8.60;99.90;;;;;;8432100;28;19970;-70
2023/12/15 18:51:05;;;;;;;;;;;8.60;99.90;;;;;;8433807;28;19924;-71
2023/12/15 18:55:07;;;;;;;;;;;8.60;99.90;;;;;;8427556;28;20053;-71
2023/12/15 18:59:09;;;;;;;;;;;8.60;99.90;;;;;;8438697;28;19927;-71
2023/12/15 19:03:10;;;;;;;;;;;8.60;99.90;;;;;;8432049;28;20937;-71
2023/12/15 19:07:12;;;;;;;;;;;8.60;99.90;;;;;;8432826;28;20303;-71
2023/12/15 19:11:14;;;;;;;;;;;8.60;99.90;;;;;;8444713;28;19975;-71
2023/12/15 19:15:15;;;;;;;;;;;8.60;99.90;;;;;;8434582;28;19924;-71
2023/12/15 19:19:17;;;;;;;;;;;8.60;99.90;;;;;;8466613;27;19924;-71
2023/12/15 19:23:19;;;;;;;;;;;8.60;99.90;;;;;;8429545;28;20019;-71
2023/12/15 19:27:20;;;;;;;;;;;8.50;99.90;;;;;;8434900;28;19925;-71
2023/12/15 19:31:22;;;;;;;;;;;8.50;99.90;;;;;;8427238;28;19972;-71
2023/12/15 19:35:24;;;;;;;;;;;8.50;99.90;;;;;;8430201;28;19924;-71
2023/12/15 19:39:26;;;;;;;;;;;8.50;99.90;;;;;;8432381;28;19924;-71
2023/12/15 19:43:28;;;;;;;;;;;8.50;99.90;;;;;;8469419;27;19931;-71
2023/12/15 19:47:30;;;;;;;;;;;8.50;99.90;;;;;;8435213;28;19968;-71
2023/12/15 19:51:32;;;;;;;;;;;8.50;99.90;;;;;;8442290;28;19949;-71
2023/12/15 19:55:36;;;;;;;;;;;8.50;99.90;;;;;;8416466;28;19932;-71
2023/12/15 19:59:37;;;;;;;;;;;8.50;99.90;;;;;;8418587;28;20322;-71
2023/12/15 20:03:39;;;;;;;;;;;8.50;99.90;;;;;;8439224;28;19924;-71
2023/12/15 20:07:41;;;;;;;;;;;8.50;99.90;;;;;;8429388;28;19955;-71
2023/12/15 20:11:42;;;;;;;;;;;8.50;99.90;;;;;;8425090;28;20371;-71
2023/12/15 20:15:46;;;;;;;;;;;8.50;99.90;;;;;;8425349;28;19931;-71
2023/12/15 20:19:48;;;;;;;;;;;8.50;99.90;;;;;;8424934;28;20013;-71
2023/12/15 20:23:50;;;;;;;;;;;8.50;99.90;;;;;;8426315;28;19950;-71
2023/12/15 20:27:52;;;;;;;;;;;8.50;99.90;;;;;;8430026;28;20286;-71
2023/12/15 20:31:54;;;;;;;;;;;8.50;99.90;;;;;;8429485;28;20601;-71
2023/12/15 20:35:56;;;;;;;;;;;8.40;99.90;;;;;;8426701;28;19924;-71
2023/12/15 20:39:57;;;;;;;;;;;8.40;99.90;;;;;;8433449;28;19925;-70
2023/12/15 20:43:59;;;;;;;;;;;8.30;99.90;;;;;;8433486;28;20444;-71
2023/12/15 20:48:01;;;;;;;;;;;8.30;99.90;;;;;;8428393;28;20291;-71
2023/12/15 20:52:03;;;;;;;;;;;8.30;99.90;;;;;;8430964;28;20291;-71
2023/12/15 20:56:05;;;;;;;;;;;8.30;99.90;;;;;;8424348;28;19930;-71
2023/12/15 21:00:09;;;;;;;;;;;8.30;99.90;;;;;;8425863;28;19928;-71
2023/12/15 21:04:10;;;;;;;;;;;8.30;99.90;;;;;;8426989;28;19925;-71
2023/12/15 21:08:12;;;;;;;;;;;8.30;99.90;;;;;;8425729;28;20152;-71
2023/12/15 21:22:34;;;;;;;;;;;8.30;99.90;;;;;;8436045;28;19919;-70
2023/12/15 21:26:37;;;;;;;;;;;8.30;99.90;;;;;;8436099;28;19970;-70
2023/12/15 21:30:39;;;;;;;;;;;8.30;99.90;;;;;;8441703;28;20361;-71
2023/12/15 21:34:41;;;;;;;;;;;8.30;99.90;;;;;;8428911;28;20371;-71
2023/12/15 21:38:43;;;;;;;;;;;8.30;99.90;;;;;;8432739;28;19930;-71
2023/12/15 21:42:46;;;;;;;;;;;8.30;99.90;;;;;;8422636;28;19924;-70
2023/12/15 21:46:48;;;;;;;;;;;8.30;99.90;;;;;;8463922;27;20227;-71
2023/12/15 21:50:50;;;;;;;;;;;8.30;99.90;;;;;;8429809;28;19947;-70
2023/12/15 21:54:52;;;;;;;;;;;8.30;99.90;;;;;;8436409;28;19947;-71
2023/12/15 21:58:53;;;;;;;;;;;8.30;99.90;;;;;;8442727;28;19988;-71
2023/12/15 22:02:57;;;;;;;;;;;8.30;99.90;;;;;;8428551;28;19972;-71
2023/12/15 22:07:00;;;;;;;;;;;8.20;99.90;;;;;;8441018;28;19928;-70
2023/12/15 22:11:02;;;;;;;;;;;8.20;99.90;;;;;;8438418;28;19963;-70
2023/12/15 22:15:04;;;;;;;;;;;8.30;99.90;;;;;;8437127;28;19924;-70
2023/12/15 22:29:13;;;;;;;;;;;8.30;99.90;;;;;;8438850;28;19998;-70
2023/12/15 22:33:14;;;;;;;;;;;8.30;99.90;;;;;;8457178;27;19928;-70
2023/12/15 22:37:16;;;;;;;;;;;8.30;99.90;;;;;;8441037;28;19950;-71
2023/12/15 22:41:18;;;;;;;;;;;8.30;99.90;;;;;;8439411;28;19936;-71
2023/12/15 22:45:19;;;;;;;;;;;8.30;99.90;;;;;;8437377;28;19959;-71
2023/12/15 22:49:21;;;;;;;;;;;8.30;99.90;;;;;;8433983;28;20375;-70
2023/12/15 22:53:23;;;;;;;;;;;8.30;99.90;;;;;;8435646;28;20348;-71
2023/12/15 23:07:25;;;;;;;;;;;8.20;99.90;;;;;;8423988;28;19970;-70
2023/12/15 23:11:27;;;;;;;;;;;8.10;99.90;;;;;;8435825;28;20356;-70
2023/12/15 23:20:32;;;;;;;;;;;8.10;99.90;;;;;;8430959;28;20379;-70
2023/12/15 23:44:40;;;;;;;;;;;8.20;99.90;;;;;;8429290;28;19924;-70
2023/12/15 23:54:22;;;;;;;;;;;8.20;99.90;;;;;;8432809;28;19919;-70
2023/12/15 23:58:24;;;;;;;;;;;8.20;99.90;;;;;;8431294;28;19928;-70
